^^
Datos históricos de la estación: Murcia-Puente Tocinos
Diario Informe para Abril 5, 2019 Unidades:  Ingés    Métrico   Ambas
Diario Semanal Mensual Anual
  Máxima: Mínima: Promedio:
Temperatura: 94.3 °F 75.7 °F 83.3 °F
Punto de rocio: 73.4 °F 69.6 °F 72.1 °F
Humedad: 86% 49.6% 71%
Velocidad viento: 12.3mph 0mph 5.5mph
Racha viento: 23mph - -
Viento- - Este
Presión: 29.9 in 29.8 in -
Precipitación: 0 in    
 
 
Tabla de datos para Abril 5, 2019
Hora Temperatura Punto de rocio Presión Viento Velocidad viento Racha viento Humedad Intensidad lluvia(por hora) Nubes
00:04 79.5 °F 70.7 °F 29.9 in NE 5.9 mph 9.7 mph 74.7% 0 in
00:09 79.3 °F 70.9 °F 29.9 in NNE 6 mph 11.5 mph 75.6% 0 in
00:14 79.3 °F 71.2 °F 29.9 in NE 6.2 mph 12 mph 76.5% 0 in
00:19 79.2 °F 71.2 °F 29.9 in NE 6.3 mph 12 mph 77% 0 in
00:24 79.2 °F 71.2 °F 29.9 in NNE 6.4 mph 9 mph 77% 0 in
00:29 79.2 °F 71.6 °F 29.9 in NNE 5.8 mph 8 mph 77.9% 0 in
00:34 79 °F 71.6 °F 29.9 in NNE 4.7 mph 9.2 mph 78.1% 0 in
00:39 79 °F 72 °F 29.9 in NE 4.7 mph 9.2 mph 79% 0 in
00:44 79 °F 72.1 °F 29.9 in NE 4.7 mph 9.2 mph 79.4% 0 in
00:49 79 °F 72.1 °F 29.9 in NNE 4.7 mph 8.1 mph 80% 0 in
00:54 78.8 °F 72.3 °F 29.9 in NNE 4.7 mph 10.4 mph 80.9% 0 in
00:59 78.6 °F 72.5 °F 29.9 in NNE 5.2 mph 10.4 mph 81.5% 0 in
01:04 78.4 °F 72.5 °F 29.9 in NE 5.9 mph 10 mph 82% 0 in
01:09 78.4 °F 72.5 °F 29.9 in NE 5.9 mph 9.7 mph 82% 0 in
01:14 78.4 °F 72.5 °F 29.9 in NNE 5.9 mph 10.4 mph 82% 0 in
01:19 78.4 °F 72.5 °F 29.9 in NE 5.7 mph 10 mph 82.2% 0 in
01:24 78.4 °F 72.9 °F 29.9 in NNE 5.2 mph 8.1 mph 83% 0 in
01:29 78.3 °F 72.7 °F 29.9 in NE 4.8 mph 8 mph 83% 0 in
01:34 78.3 °F 72.7 °F 29.9 in NE 4.3 mph 7 mph 83% 0 in
01:39 78.3 °F 72.7 °F 29.9 in NE 4.3 mph 7 mph 83% 0 in
01:44 78.3 °F 72.9 °F 29.9 in NE 4.3 mph 7.4 mph 83.8% 0 in
01:49 78.1 °F 72.9 °F 29.9 in NE 4.3 mph 8.1 mph 84% 0 in
01:54 78.1 °F 72.9 °F 29.9 in NE 4.3 mph 8 mph 84% 0 in
01:59 78.1 °F 72.9 °F 29.9 in NE 4.5 mph 7 mph 84% 0 in
02:04 77.9 °F 72.7 °F 29.9 in NE 4.7 mph 6 mph 84% 0 in
02:09 77.9 °F 72.7 °F 29.9 in NE 4.3 mph 6.9 mph 84% 0 in
02:14 77.7 °F 72.9 °F 29.9 in NE 3.6 mph 7 mph 85% 0 in
02:19 77.5 °F 72.7 °F 29.9 in NE 3.9 mph 7.4 mph 85% 0 in
02:24 77.5 °F 72.7 °F 29.9 in NE 4.3 mph 7 mph 85% 0 in
02:29 77.5 °F 72.7 °F 29.9 in NE 4 mph 6.2 mph 85% 0 in
02:34 77.4 °F 72.5 °F 29.9 in NE 3.6 mph 6.9 mph 85% 0 in
02:39 77.4 °F 72.5 °F 29.9 in NNE 3.7 mph 7 mph 85% 0 in
02:44 77.4 °F 72.5 °F 29.9 in NNE 4 mph 6 mph 85% 0 in
02:49 77.4 °F 72.5 °F 29.9 in NNE 3.7 mph 6 mph 85% 0 in
02:54 77.4 °F 72.5 °F 29.9 in NNO 3.1 mph 5 mph 85% 0 in
02:59 77.4 °F 72.5 °F 29.9 in NNE 2.7 mph 5 mph 85% 0 in
03:04 77.4 °F 72.5 °F 29.9 in NNO 2 mph 5 mph 85% 0 in
03:09 77.4 °F 72.7 °F 29.9 in North 2 mph 5.2 mph 85.6% 0 in
03:14 77.4 °F 72.9 °F 29.9 in NNO 2 mph 5.2 mph 86% 0 in
03:19 77.4 °F 72.7 °F 29.9 in North 2.2 mph 5 mph 85.8% 0 in
03:24 77.4 °F 72.9 °F 29.9 in NO 2.4 mph 4 mph 86% 0 in
03:29 77.4 °F 72.9 °F 29.9 in North 2.2 mph 3.5 mph 86% 0 in
03:34 77.4 °F 72.9 °F 29.9 in NE 1.8 mph 3 mph 86% 0 in
03:39 77.4 °F 72.9 °F 29.9 in NNE 1.7 mph 4.6 mph 86% 0 in
03:44 77.4 °F 72.9 °F 29.9 in NNO 1.4 mph 5 mph 86% 0 in
03:49 77.4 °F 72.9 °F 29.9 in NNO 1.6 mph 4 mph 86% 0 in
03:54 77.4 °F 72.9 °F 29.9 in NNO 1.8 mph   86% 0 in
03:59 77.4 °F 72.9 °F 29.9 in NNO 1.1 mph 4 mph 86% 0 in
04:04 77.4 °F 72.9 °F 29.9 in Calm   5 mph 86% 0 in
04:09 77.2 °F 72.7 °F 29.9 in Calm   3 mph 86% 0 in
04:14 77.2 °F 72.7 °F 29.9 in Calm     86% 0 in
04:19 77.4 °F 72.7 °F 29.9 in Calm     86% 0 in
04:24 77.4 °F 72.9 °F 29.9 in Calm     86% 0 in
04:29 77.4 °F 72.9 °F 29.9 in Calm     86% 0 in
04:34 77.4 °F 72.9 °F 29.9 in Calm     86% 0 in
04:39 77.4 °F 72.9 °F 29.9 in SO 0.5 mph 4.7 mph 86% 0 in
04:44 77.4 °F 72.9 °F 29.9 in SO 1.4 mph 5 mph 86% 0 in
04:49 77.4 °F 72.9 °F 29.9 in SSO 1.9 mph 5 mph 86% 0 in
04:54 77.4 °F 72.9 °F 29.9 in Sur 2.9 mph 5 mph 86% 0 in
04:59 77.4 °F 72.9 °F 29.9 in Sur 2.7 mph 5.9 mph 86% 0 in
05:04 77.4 °F 72.9 °F 29.9 in Sur 2.4 mph 6 mph 86% 0 in
05:09 77.4 °F 72.7 °F 29.9 in SSE 3 mph 6 mph 86% 0 in
05:14 77.2 °F 72.7 °F 29.9 in Sur 4 mph 5.2 mph 86% 0 in
05:19 77.2 °F 72.7 °F 29.9 in Sur 3.6 mph 5 mph 86% 0 in
05:24 77.4 °F 72.7 °F 29.9 in SSO 2.9 mph 5 mph 86% 0 in
05:29 77.4 °F 72.9 °F 29.9 in SO 2.5 mph 4.3 mph 86% 0 in
05:34 77.4 °F 72.9 °F 29.9 in OSO 1.8 mph 5 mph 86% 0 in
05:39 77.5 °F 72.9 °F 29.9 in SO 1.8 mph 5 mph 86% 0 in
05:44 77.5 °F 73 °F 29.9 in SO 1.8 mph 5.8 mph 86% 0 in
05:49 77.5 °F 73 °F 29.9 in OSO 2.1 mph 6 mph 86% 0 in
05:54 77.5 °F 73 °F 29.9 in OSO 2.4 mph 5 mph 86% 0 in
05:59 77.5 °F 73 °F 29.9 in OSO 2.2 mph 5 mph 86% 0 in
06:04 77.5 °F 73 °F 29.9 in OSO 1.8 mph 2 mph 85.9% 0 in
06:09 77.5 °F 72.7 °F 29.9 in OSO 1.2 mph   85% 0 in
06:14 77.5 °F 72.7 °F 29.9 in Calm   4.6 mph 85% 0 in
06:19 77.5 °F 72.7 °F 29.9 in SSO 0.6 mph 5 mph 85% 0 in
06:24 77.5 °F 72.7 °F 29.9 in ONO 1.8 mph 4.6 mph 85% 0 in
06:29 77.4 °F 72.5 °F 29.9 in NO 1.8 mph 5 mph 85% 0 in
06:34 77.4 °F 72.5 °F 29.9 in NO 1.8 mph 2 mph 85% 0 in
06:39 77.2 °F 72.3 °F 29.9 in NO 1.2 mph   85% 0 in
06:44 77.2 °F 72.1 °F 29.9 in Calm   3.5 mph 84.9% 0 in
06:49 76.8 °F 72 °F 29.9 in ENE 0.5 mph 3.5 mph 84.9% 0 in
06:54 76.6 °F 71.6 °F 29.9 in ENE 1.4 mph 4.6 mph 84.4% 0 in
06:59 76.5 °F 71.4 °F 29.9 in ESE 1.6 mph 5 mph 84% 0 in
07:04 76.3 °F 71.1 °F 29.9 in ESE 2 mph 5 mph 84% 0 in
07:09 76.3 °F 71.1 °F 29.9 in ESE 2.3 mph 5.2 mph 84% 0 in
07:14 76.1 °F 70.9 °F 29.9 in ESE 2.9 mph 5.4 mph 84% 0 in
07:19 75.9 °F 70.7 °F 29.9 in ESE 3.2 mph 6 mph 84% 0 in
07:24 75.9 °F 70.7 °F 29.9 in ESE 3.6 mph 6.2 mph 84% 0 in
07:29 75.7 °F 70.5 °F 29.9 in Este 3.6 mph 7.4 mph 84% 0 in
07:34 75.7 °F 70.5 °F 29.9 in Este 3.6 mph 7 mph 84% 0 in
07:39 75.7 °F 70.5 °F 29.9 in NE 3.7 mph 7 mph 84% 0 in
07:44 75.7 °F 70.5 °F 29.9 in NE 4 mph 6 mph 84% 0 in
07:49 75.9 °F 70.7 °F 29.9 in NNE 3.6 mph 5.2 mph 84% 0 in
07:54 75.9 °F 71.1 °F 29.9 in NE 2.9 mph 6.2 mph 84.8% 0 in
07:59 75.9 °F 71.1 °F 29.9 in NE 3 mph 6.9 mph 85% 0 in
08:04 76.1 °F 71.2 °F 29.9 in ENE 3.1 mph 7 mph 85% 0 in
08:09 76.5 °F 71.6 °F 29.9 in Este 3.4 mph 9.2 mph 85% 0 in
08:14 76.6 °F 71.8 °F 29.9 in Este 4 mph 9 mph 84.9% 0 in
08:19 77 °F 71.8 °F 29.9 in Este 4 mph 6 mph 84.1% 0 in
08:24 77.4 °F 71.8 °F 29.9 in Este 4 mph 5.4 mph 83.2% 0 in
08:29 77.5 °F 72 °F 29.9 in Este 3.6 mph 6 mph 83% 0 in
08:34 77.7 °F 72.1 °F 29.9 in ENE 2.9 mph 5 mph 83% 0 in
08:39 78.3 °F 72.3 °F 29.9 in NE 2.5 mph 4.3 mph 82.3% 0 in
08:44 78.6 °F 72.7 °F 29.9 in NE 1.8 mph 5 mph 81.9% 0 in
08:49 79 °F 72.7 °F 29.9 in NE 2.2 mph 5 mph 81% 0 in
08:54 79.3 °F 72.5 °F 29.9 in NNE 2.9 mph 6.9 mph 80% 0 in
08:59 79.3 °F 72.5 °F 29.9 in NNE 3 mph 7 mph 79.8% 0 in
09:04 79.3 °F 72.5 °F 29.9 in NE 3.1 mph 6 mph 79.7% 0 in
09:09 79.3 °F 72.5 °F 29.9 in NE 3.3 mph 5.8 mph 79.8% 0 in
09:14 79.5 °F 72.3 °F 29.9 in NE 3.6 mph 7.4 mph 78.7% 0 in
09:19 79.5 °F 72.3 °F 29.9 in NE 3.7 mph 7 mph 78.8% 0 in
09:24 79.9 °F 72.3 °F 29.9 in NNE 4 mph 7 mph 78% 0 in
09:29 80.1 °F 72.5 °F 29.9 in NNE 4 mph 8.1 mph 78% 0 in
09:34 80.1 °F 72.7 °F 29.9 in NNE 4 mph 8 mph 78% 0 in
09:39 80.2 °F 72.9 °F 29.9 in NE 4.1 mph 9.7 mph 78% 0 in
09:44 80.1 °F 72.7 °F 29.9 in NE 4.3 mph 10 mph 78% 0 in
09:49 80.2 °F 72.7 °F 29.9 in NNE 5 mph 10.4 mph 78% 0 in
09:54 80.2 °F 72.9 °F 29.9 in NE 6.2 mph 10.7 mph 78% 0 in
09:59 80.4 °F 72.7 °F 29.9 in NNE 5.8 mph 11 mph 77.5% 0 in
10:04 80.6 °F 72.7 °F 29.9 in NNE 5.2 mph 10 mph 77% 0 in
10:09 80.6 °F 72.7 °F 29.9 in NNE 5.5 mph 9 mph 76.9% 0 in
10:14 81 °F 72.7 °F 29.9 in NE 5.9 mph 9 mph 76% 0 in
10:19 81.1 °F 72.5 °F 29.9 in NNE 5.3 mph 8 mph 75.1% 0 in
10:24 81.7 °F 72.9 °F 29.9 in NNE 4.3 mph 8.1 mph 74.7% 0 in
10:29 81.9 °F 72.7 °F 29.9 in NE 4.5 mph 9.2 mph 74% 0 in
10:34 81.9 °F 72.5 °F 29.9 in North 4.7 mph 9 mph 73.3% 0 in
10:39 82 °F 72.5 °F 29.9 in NNO 4.5 mph 8.5 mph 72.9% 0 in
10:44 82.6 °F 72.7 °F 29.9 in NE 4 mph 9.7 mph 72.5% 0 in
10:49 82.8 °F 72.7 °F 29.9 in ENE 4.1 mph 10 mph 71.7% 0 in
10:54 83.1 °F 72.5 °F 29.9 in NNE 4.3 mph 9.2 mph 70.6% 0 in
10:59 83.1 °F 72.3 °F 29.9 in NE 4.3 mph 9 mph 70.1% 0 in
11:04 82.9 °F 72.1 °F 29.9 in NE 4.3 mph 7 mph 69.8% 0 in
11:09 83.1 °F 72.3 °F 29.9 in NE 4.3 mph 8.1 mph 70% 0 in
11:14 83.5 °F 72.1 °F 29.9 in NE 4.3 mph 8 mph 69.1% 0 in
11:19 83.7 °F 72.1 °F 29.9 in NE 4.3 mph 9.2 mph 68.3% 0 in
11:24 83.7 °F 72 °F 29.9 in NE 4.3 mph 10.4 mph 68% 0 in
11:29 83.8 °F 72.1 °F 29.9 in NNO 4.2 mph 10 mph 68% 0 in
11:34 84.2 °F 72.1 °F 29.9 in NE 3.6 mph 7.4 mph 67.2% 0 in
11:39 84.4 °F 72 °F 29.9 in North 3.7 mph 7 mph 66.2% 0 in
11:44 84.7 °F 72.1 °F 29.9 in NNE 4 mph 7.4 mph 66.2% 0 in
11:49 84.7 °F 71.8 °F 29.9 in North 3.9 mph 7.4 mph 65.2% 0 in
11:54 84.9 °F 72 °F 29.9 in NNO 3.1 mph 7 mph 65.1% 0 in
11:59 85.5 °F 72 °F 29.9 in NE 3.3 mph 8.1 mph 64.3% 0 in
12:04 85.5 °F 72 °F 29.9 in NNO 4 mph 8 mph 64% 0 in
12:09 86 °F 72.1 °F 29.9 in NNE 4 mph 9.7 mph 63.6% 0 in
12:14 86 °F 72 °F 29.9 in NE 3.6 mph 11.5 mph 63.1% 0 in
12:19 85.8 °F 72.3 °F 29.9 in NE 3.9 mph 12 mph 64.1% 0 in
12:24 86.2 °F 72.1 °F 29.9 in NNE 5.2 mph 9 mph 63.1% 0 in
12:29 86.5 °F 72.1 °F 29.9 in NE 5.1 mph 10.7 mph 62.2% 0 in
12:34 86.7 °F 72.1 °F 29.9 in NNE 4.7 mph 11 mph 62% 0 in
12:39 86.7 °F 72 °F 29.9 in North 4.8 mph 11 mph 61.7% 0 in
12:44 87.1 °F 72.3 °F 29.9 in NE 5.4 mph 13 mph 61.6% 0 in
12:49 87.1 °F 72.1 °F 29.9 in NNE 5.4 mph 13 mph 61.3% 0 in
12:54 87.3 °F 72.1 °F 29.9 in NNE 5.4 mph 9.2 mph 60.8% 0 in
12:59 87.4 °F 72.1 °F 29.9 in North 5.3 mph 9 mph 60.4% 0 in
13:04 88 °F 72.3 °F 29.9 in NE 4.7 mph 10.4 mph 60% 0 in
13:09 88.2 °F 72.1 °F 29.9 in North 4.8 mph 10 mph 59.4% 0 in
13:14 88.3 °F 72.5 °F 29.9 in NNE 5.2 mph 10.4 mph 59.7% 0 in
13:19 88.5 °F 72.5 °F 29.9 in North 5.2 mph 11.5 mph 59.2% 0 in
13:24 88.9 °F 72.7 °F 29.9 in NNE 5.4 mph 12 mph 58.9% 0 in
13:29 88.5 °F 72.5 °F 29.9 in NE 5.7 mph 12.7 mph 59% 0 in
13:34 88.9 °F 72.7 °F 29.9 in NE 7.4 mph 13 mph 58.8% 0 in
13:39 89.2 °F 72.5 °F 29.9 in NE 7.1 mph 12.3 mph 58% 0 in
13:44 89.6 °F 72.9 °F 29.9 in NNE 5.9 mph 13 mph 58% 0 in
13:49 90 °F 72.7 °F 29.9 in NE 6 mph 11.5 mph 57.2% 0 in
13:54 90.3 °F 72.7 °F 29.9 in NNE 6.2 mph 13 mph 56.4% 0 in
13:59 90.5 °F 72.7 °F 29.9 in NNE 6.3 mph 13.8 mph 56% 0 in
14:04 90.7 °F 72.9 °F 29.9 in NE 6.9 mph 14 mph 56% 0 in
14:09 90.9 °F 72.9 °F 29.9 in NE 6.8 mph 14 mph 55.7% 0 in
14:14 91.6 °F 72.9 °F 29.9 in NE 6.4 mph 11.5 mph 54.6% 0 in
14:19 91.8 °F 72.7 °F 29.9 in NNE 6.4 mph 12 mph 54% 0 in
14:24 91.9 °F 72.7 °F 29.9 in NNE 6.4 mph 12 mph 53.8% 0 in
14:29 92.1 °F 72.5 °F 29.9 in ENE 6.4 mph 15 mph 52.9% 0 in
14:34 92.5 °F 72.3 °F 29.9 in NE 6.2 mph 15 mph 52.1% 0 in
14:39 92.7 °F 72.3 °F 29.8 in North 6.4 mph 15.2 mph 52% 0 in
14:44 92.7 °F 72.5 °F 29.8 in NE 7.6 mph 16.3 mph 52% 0 in
14:49 92.8 °F 72.3 °F 29.8 in NE 8 mph 17.5 mph 51.5% 0 in
14:54 92.7 °F 72.9 °F 29.8 in NE 9.7 mph 17 mph 52.6% 0 in
14:59 93.2 °F 73 °F 29.8 in NE 9.4 mph 15 mph 52.4% 0 in
15:04 93.2 °F 73 °F 29.8 in NE 8.1 mph 14 mph 51.9% 0 in
15:09 93 °F 73 °F 29.8 in NE 8.4 mph 17 mph 52.3% 0 in
15:14 92.8 °F 73.2 °F 29.8 in NNE 9.7 mph 17.5 mph 52.9% 0 in
15:19 92.8 °F 73.2 °F 29.8 in NE 9.9 mph 17.3 mph 52.9% 0 in
15:24 92.8 °F 73 °F 29.8 in NE 10.7 mph 22.5 mph 52.6% 0 in
15:29 92.8 °F 73 °F 29.8 in NE 10.6 mph 23 mph 52.5% 0 in
15:34 92.8 °F 73.2 °F 29.8 in NE 10.2 mph 23 mph 53.2% 0 in
15:39 92.7 °F 73.2 °F 29.8 in NE 10.6 mph 20 mph 53.4% 0 in
15:44 92.8 °F 73.4 °F 29.8 in NE 12.3 mph 20.1 mph 53.1% 0 in
15:49 93 °F 73.4 °F 29.8 in NE 12.2 mph 21 mph 53% 0 in
15:54 93.2 °F 73 °F 29.8 in NE 11.4 mph 21 mph 52.1% 0 in
15:59 93 °F 72.9 °F 29.8 in NE 11.6 mph 20.7 mph 52.2% 0 in
16:04 93 °F 73 °F 29.8 in NE 12.3 mph 21 mph 52.4% 0 in
16:09 93.4 °F 73 °F 29.8 in ENE 12 mph 21 mph 51.9% 0 in
16:14 93.7 °F 73 °F 29.8 in ENE 10.2 mph 16.1 mph 51.2% 0 in
16:19 93.7 °F 72.7 °F 29.8 in Este 10.1 mph 16 mph 50.7% 0 in
16:24 93.9 °F 72.7 °F 29.8 in Este 8.5 mph 13 mph 50.4% 0 in
16:29 94.3 °F 72.7 °F 29.8 in Este 8.3 mph 16.3 mph 49.8% 0 in
16:34 94.3 °F 72.7 °F 29.8 in Este 7.4 mph 16 mph 49.6% 0 in
16:39 94.1 °F 72.5 °F 29.8 in ENE 7.3 mph 15 mph 50% 0 in
16:44 93.7 °F 72.5 °F 29.8 in Este 6.9 mph 16.1 mph 50.2% 0 in
16:49 93.6 °F 72.5 °F 29.8 in ENE 7 mph 16 mph 50.8% 0 in
16:54 93 °F 72.3 °F 29.8 in ENE 7.4 mph 17.5 mph 51% 0 in
16:59 92.8 °F 72.5 °F 29.8 in Este 7.6 mph 17 mph 51.8% 0 in
17:04 93 °F 72.3 °F 29.8 in ENE 8.7 mph 14 mph 51.1% 0 in
17:09 93 °F 72.7 °F 29.8 in ENE 8.5 mph 14 mph 51.7% 0 in
17:14 93 °F 72.7 °F 29.8 in Este 7.6 mph 16.1 mph 52% 0 in
17:19 92.8 °F 72.7 °F 29.8 in Este 7.5 mph 16 mph 51.9% 0 in
17:24 92.8 °F 72.7 °F 29.8 in ENE 6.9 mph 14 mph 52% 0 in
17:29 92.7 °F 72.5 °F 29.8 in Este 7 mph 16.1 mph 52% 0 in
17:34 92.1 °F 72.5 °F 29.8 in ESE 7.4 mph 16.3 mph 52.8% 0 in
17:39 91.8 °F 72.3 °F 29.8 in ESE 7.8 mph 16.3 mph 53.1% 0 in
17:44 91.6 °F 72 °F 29.8 in Este 9.7 mph 16 mph 53% 0 in
17:49 91.8 °F 72.3 °F 29.8 in ENE 9.3 mph 14 mph 53.5% 0 in
17:54 91.9 °F 72.3 °F 29.8 in ENE 7.4 mph 13 mph 53% 0 in
17:59 91.6 °F 72.5 °F 29.8 in NE 7.3 mph 16.3 mph 53.7% 0 in
18:04 91.4 °F 72.5 °F 29.8 in Este 6.9 mph 16 mph 54% 0 in
18:09 91 °F 72.3 °F 29.8 in ENE 6.8 mph 13 mph 54.4% 0 in
18:14 91.2 °F 72.9 °F 29.8 in ENE 6.4 mph 13 mph 55% 0 in
18:19 91 °F 73 °F 29.8 in ENE 6.2 mph 12 mph 55.5% 0 in
18:24 91 °F 73 °F 29.8 in Este 5.4 mph 13.8 mph 55.7% 0 in
18:29 90.7 °F 73.2 °F 29.8 in ENE 5.6 mph 14 mph 56.5% 0 in
18:34 90.3 °F 73.2 °F 29.8 in ENE 6.4 mph 13 mph 57.3% 0 in
18:39 89.8 °F 73.2 °F 29.8 in NE 6.9 mph 16.3 mph 58.4% 0 in
18:44 89.4 °F 73.2 °F 29.8 in NE 9.2 mph 17.5 mph 59% 0 in
18:49 89.1 °F 72.9 °F 29.8 in NE 9.3 mph 17.5 mph 59% 0 in
18:54 89.1 °F 72.9 °F 29.8 in NE 9.7 mph 17 mph 59.3% 0 in
18:59 88.9 °F 72.9 °F 29.8 in NE 9.4 mph 15.2 mph 59.2% 0 in
19:04 88.9 °F 72.9 °F 29.8 in NE 8.5 mph 15 mph 59.3% 0 in
19:09 88.5 °F 72.9 °F 29.8 in NE 8.7 mph 16.8 mph 60% 0 in
19:14 88.2 °F 72.5 °F 29.8 in NNE 10 mph 17.3 mph 60% 0 in
19:19 88 °F 72.5 °F 29.8 in NE 10.1 mph 17.3 mph 60.3% 0 in
19:24 87.6 °F 72.5 °F 29.8 in NE 10.7 mph 17 mph 60.9% 0 in
19:29 87.6 °F 72.5 °F 29.8 in NE 10.6 mph 18.5 mph 60.9% 0 in
19:34 87.4 °F 71.4 °F 29.8 in NE 9.7 mph 19 mph 59% 0 in
19:39 87.1 °F 71.1 °F 29.8 in NE 9.9 mph 19 mph 59.1% 0 in
19:44 86.9 °F 71.2 °F 29.8 in NE 11.2 mph 18 mph 59.8% 0 in
19:49 86.5 °F 71.2 °F 29.8 in NE 11 mph 18.4 mph 60.2% 0 in
19:54 86.4 °F 71.2 °F 29.8 in NE 10 mph 18.4 mph 61% 0 in
19:59 86 °F 71.2 °F 29.8 in NE 10.3 mph 18.5 mph 61.5% 0 in
20:04 85.8 °F 71.2 °F 29.8 in NE 11.4 mph 19 mph 62% 0 in
20:09 85.6 °F 71.2 °F 29.8 in NE 11.2 mph 18.4 mph 62% 0 in
20:14 85.5 °F 71.4 °F 29.8 in NE 10.2 mph 18 mph 63% 0 in
20:19 85.1 °F 71.1 °F 29.8 in NE 10.3 mph 17 mph 63% 0 in
20:24 85.1 °F 71.1 °F 29.8 in NE 10.7 mph 16.3 mph 63% 0 in
20:29 84.9 °F 71.1 °F 29.8 in NE 10.6 mph 17.5 mph 63% 0 in
20:34 84.7 °F 70.9 °F 29.8 in NE 10 mph 17 mph 63.3% 0 in
20:39 84.6 °F 70.9 °F 29.8 in NE 9.8 mph 16.1 mph 63.6% 0 in
20:44 84.4 °F 70.3 °F 29.8 in NE 8.7 mph 17.3 mph 63% 0 in
20:49 84 °F 70.2 °F 29.8 in NE 8.9 mph 17 mph 63% 0 in
20:54 83.8 °F 70 °F 29.8 in NE 9.7 mph 16.8 mph 63% 0 in
20:59 83.7 °F 69.8 °F 29.8 in NE 9.8 mph 17.3 mph 63% 0 in
21:04 83.7 °F 69.6 °F 29.8 in NE 10 mph 17 mph 63% 0 in
21:09 83.5 °F 69.8 °F 29.8 in NE 9.7 mph 15.6 mph 63.7% 0 in
21:14 83.3 °F 70.2 °F 29.8 in NE 8.1 mph 16.1 mph 64.8% 0 in
21:19 82.9 °F 70.5 °F 29.8 in NE 8.3 mph 14 mph 65.9% 0 in
21:24 82.9 °F 70.3 °F 29.8 in NE 9.2 mph 13 mph 66% 0 in
21:29 82.9 °F 70.5 °F 29.8 in NE 8.9 mph 13 mph 66.5% 0 in
21:34 82.8 °F 70.2 °F 29.8 in NE 7.4 mph 12 mph 66% 0 in
21:39 82.8 °F 70.2 °F 29.8 in NE 7.1 mph 11.5 mph 66% 0 in
21:44 82.8 °F 70.2 °F 29.8 in ENE 5.9 mph 12 mph 66% 0 in
21:49 82.9 °F 70.5 °F 29.8 in ESE 5.7 mph 9.2 mph 66.6% 0 in
21:54 82.9 °F 70.9 °F 29.8 in ESE 4.3 mph 11.4 mph 67.2% 0 in
21:59 82.8 °F 70.7 °F 29.8 in ESE 4.7 mph 15 mph 67% 0 in
22:04 82.6 °F 70.7 °F 29.9 in Este 6.2 mph 15 mph 67.6% 0 in
22:09 82.2 °F 70.7 °F 29.9 in Este 6.4 mph 12.7 mph 68% 0 in
22:14 82 °F 70.9 °F 29.9 in Este 7.4 mph 13 mph 68.9% 0 in
22:19 82 °F 71.1 °F 29.9 in Este 7.2 mph 12.7 mph 69.6% 0 in
22:24 81.9 °F 71.2 °F 29.9 in Este 6.4 mph 13 mph 70.2% 0 in
22:29 81.9 °F 71.4 °F 29.9 in Este 6.3 mph 11 mph 71% 0 in
22:34 81.9 °F 71.4 °F 29.9 in ESE 5.9 mph 10.4 mph 71% 0 in
22:39 81.9 °F 71.4 °F 29.9 in Este 5.8 mph 10.4 mph 71% 0 in
22:44 81.7 °F 71.4 °F 29.9 in Este 5.2 mph 10.4 mph 71.1% 0 in
22:49 81.7 °F 71.8 °F 29.9 in ENE 5.1 mph 10 mph 72% 0 in
22:54 81.5 °F 71.6 °F 29.9 in NE 4.7 mph 8 mph 72% 0 in
22:59 81.5 °F 71.6 °F 29.9 in NE 4.5 mph 7.4 mph 72% 0 in
23:04 81.3 °F 71.4 °F 29.9 in NE 3.6 mph 8.5 mph 72% 0 in
23:09 81.1 °F 71.4 °F 29.9 in NE 3.9 mph 9.2 mph 72% 0 in
23:14 81.1 °F 70.9 °F 29.9 in NNE 5.4 mph 9 mph 71.1% 0 in
23:19 81 °F 70.7 °F 29.9 in NE 5.3 mph 8 mph 71.1% 0 in
23:24 80.8 °F 70.9 °F 29.9 in NNE 4.7 mph 8.1 mph 71.9% 0 in
23:29 80.8 °F 70.9 °F 29.9 in NE 4.8 mph 8.1 mph 72.1% 0 in
23:34 80.8 °F 71.2 °F 29.9 in NE 5.2 mph 9.2 mph 73.3% 0 in
23:39 80.4 °F 71.4 °F 29.9 in NE 5.2 mph 9 mph 74.2% 0 in
23:44 80.2 °F 71.8 °F 29.9 in NE 5.4 mph 9.2 mph 75.3% 0 in
23:49 80.2 °F 72 °F 29.9 in NE 5.4 mph 9.2 mph 76% 0 in
23:54 80.2 °F 72.1 °F 29.9 in NE 5.4 mph 9.2 mph 76.4% 0 in
23:59 80.1 °F 72.3 °F 29.9 in NE 5.5 mph 9.2 mph 77.2% 0 in
Murcia-Puente Tocinos, España
Compliments of Weather Underground - 2.75 mb

La estación de MeteoMurcia.com, publica sus datos en los siguientes proyectos:

Weather Underground PWS IMURCIAP2 Meteoclimatic www.awekas.at

W3Counter
Web Analytics